createdAt,value
2022-07-25T00:00:09.771Z,7.00
2022-07-25T00:02:37.687Z,7.47
2022-07-25T00:05:05.828Z,7.83
2022-07-25T00:07:33.097Z,6.90
2022-07-25T00:10:00.225Z,6.33
2022-07-25T00:12:27.554Z,5.60
2022-07-25T00:14:54.684Z,6.43
2022-07-25T00:17:24.174Z,6.40
2022-07-25T00:19:51.324Z,7.17
2022-07-25T00:22:18.614Z,7.33
2022-07-25T00:24:45.896Z,7.00
2022-07-25T00:27:13.107Z,6.63
2022-07-25T00:29:40.587Z,7.27
2022-07-25T00:32:07.870Z,6.83
2022-07-25T00:34:35.409Z,7.33
2022-07-25T00:37:02.669Z,7.27
2022-07-25T00:39:29.938Z,7.50
2022-07-25T00:42:00.302Z,7.57
2022-07-25T00:44:31.142Z,6.70
2022-07-25T00:46:59.572Z,7.83
2022-07-25T00:49:28.109Z,7.50
2022-07-25T00:51:55.980Z,7.60
2022-07-25T00:54:23.914Z,8.10
2022-07-25T00:56:51.839Z,8.90
2022-07-25T00:59:19.351Z,7.27
2022-07-25T01:01:48.670Z,7.37
2022-07-25T01:04:17.289Z,7.07
2022-07-25T01:06:44.943Z,6.20
2022-07-25T01:09:13.343Z,7.00
2022-07-25T01:11:40.829Z,7.13
2022-07-25T01:14:08.326Z,6.93
2022-07-25T01:16:36.048Z,9.10
2022-07-25T01:19:04.058Z,8.47
2022-07-25T01:21:31.181Z,8.47
2022-07-25T01:23:58.506Z,7.27
2022-07-25T01:26:25.837Z,7.37
2022-07-25T01:28:53.005Z,7.17
2022-07-25T01:31:20.313Z,7.30
2022-07-25T01:33:47.415Z,6.67
2022-07-25T01:36:14.788Z,7.37
2022-07-25T01:38:41.902Z,7.30
2022-07-25T01:41:09.126Z,7.47
2022-07-25T01:43:36.388Z,7.43
2022-07-25T01:46:03.983Z,7.07
2022-07-25T01:48:31.235Z,7.40
2022-07-25T01:50:58.612Z,6.87
2022-07-25T01:53:26.990Z,7.00
2022-07-25T01:55:54.708Z,7.47
2022-07-25T01:58:24.648Z,6.40
2022-07-25T02:00:52.841Z,6.70
2022-07-25T02:03:32.153Z,7.43
2022-07-25T02:06:04.737Z,7.17
2022-07-25T02:08:32.298Z,7.37
2022-07-25T02:11:01.377Z,7.33
2022-07-25T02:13:28.607Z,7.33
2022-07-25T02:15:55.771Z,6.73
2022-07-25T02:18:23.193Z,7.07
2022-07-25T02:20:50.570Z,7.20
2022-07-25T02:23:18.064Z,6.77
2022-07-25T02:25:45.303Z,6.63
2022-07-25T02:28:12.605Z,7.37
2022-07-25T02:30:40.181Z,7.40
2022-07-25T02:33:07.623Z,6.63
2022-07-25T02:35:35.010Z,7.30
2022-07-25T02:38:02.314Z,7.10
2022-07-25T02:40:29.631Z,7.30
2022-07-25T02:42:56.724Z,7.67
2022-07-25T02:45:24.164Z,7.17
2022-07-25T02:47:51.445Z,7.10
2022-07-25T02:50:18.706Z,6.47
2022-07-25T02:52:45.978Z,6.67
2022-07-25T02:55:18.049Z,6.87
2022-07-25T02:57:45.304Z,6.73
2022-07-25T03:00:14.143Z,6.73
2022-07-25T03:02:41.593Z,6.90
2022-07-25T03:05:15.126Z,6.27
2022-07-25T03:07:45.191Z,6.23
2022-07-25T03:10:14.473Z,6.37
2022-07-25T03:12:43.987Z,6.50
2022-07-25T03:15:13.180Z,6.77
2022-07-25T03:17:40.590Z,6.67
2022-07-25T03:20:10.035Z,6.00
2022-07-25T03:22:40.416Z,6.03
2022-07-25T03:25:15.836Z,6.70
2022-07-25T03:27:49.554Z,6.47
2022-07-25T03:30:16.920Z,6.40
2022-07-25T03:32:44.006Z,6.40
2022-07-25T03:35:11.154Z,5.90
2022-07-25T03:37:38.303Z,6.43
2022-07-25T03:40:06.774Z,5.73
2022-07-25T03:42:35.654Z,6.70
2022-07-25T03:45:03.271Z,7.70
2022-07-25T03:47:30.374Z,7.10
2022-07-25T03:49:57.971Z,7.03
2022-07-25T03:52:25.292Z,6.80
2022-07-25T03:54:52.558Z,6.23
2022-07-25T03:57:19.816Z,6.97
2022-07-25T03:59:46.963Z,6.07
2022-07-25T04:02:14.266Z,6.73
2022-07-25T04:04:41.523Z,6.73
2022-07-25T04:07:11.540Z,6.57
2022-07-25T04:09:38.803Z,6.23
2022-07-25T04:12:06.559Z,6.20
2022-07-25T04:14:38.359Z,6.50
2022-07-25T04:17:06.588Z,6.97
2022-07-25T04:19:33.794Z,6.90
2022-07-25T04:22:00.958Z,6.80
2022-07-25T04:24:28.135Z,6.80
2022-07-25T04:26:55.446Z,6.30
2022-07-25T04:29:22.706Z,6.43
2022-07-25T04:31:50.214Z,6.80
2022-07-25T04:34:17.466Z,6.20
2022-07-25T04:36:44.603Z,7.20
2022-07-25T04:39:14.677Z,6.53
2022-07-25T04:41:42.010Z,6.60
2022-07-25T04:44:09.628Z,6.53
2022-07-25T04:46:43.197Z,6.27
2022-07-25T04:49:10.547Z,6.70
2022-07-25T04:51:37.954Z,5.70
2022-07-25T04:54:11.164Z,5.80
2022-07-25T04:56:38.565Z,6.20
2022-07-25T04:59:06.308Z,6.37
2022-07-25T05:01:37.651Z,6.70
2022-07-25T05:04:05.305Z,5.80
2022-07-25T05:06:33.341Z,6.10
2022-07-25T05:09:00.524Z,5.57
2022-07-25T05:11:27.630Z,5.67
2022-07-25T05:13:54.797Z,6.07
2022-07-25T05:16:22.164Z,5.57
2022-07-25T05:18:49.508Z,5.90
2022-07-25T05:21:16.735Z,5.70
2022-07-25T05:23:44.347Z,5.70
2022-07-25T05:26:11.633Z,5.50
2022-07-25T05:28:38.848Z,5.27
2022-07-25T05:31:08.839Z,5.87
2022-07-25T05:33:36.142Z,6.23
2022-07-25T05:36:04.417Z,5.73
2022-07-25T05:38:31.872Z,5.93
2022-07-25T05:40:59.017Z,5.10
2022-07-25T05:43:26.301Z,5.90
2022-07-25T05:45:53.655Z,5.90
2022-07-25T05:48:20.791Z,6.00
2022-07-25T05:50:50.429Z,5.90
2022-07-25T05:53:17.549Z,5.80
2022-07-25T05:55:44.844Z,5.80
2022-07-25T05:58:11.948Z,5.50
2022-07-25T06:00:39.461Z,5.50
2022-07-25T06:03:06.564Z,6.37
2022-07-25T06:05:33.829Z,5.77
2022-07-25T06:08:00.897Z,5.70
2022-07-25T06:10:28.313Z,6.20
2022-07-25T06:12:55.682Z,6.60
2022-07-25T06:15:26.875Z,6.23
2022-07-25T06:17:55.168Z,6.13
2022-07-25T06:20:22.651Z,6.07
2022-07-25T06:22:56.037Z,5.87
2022-07-25T06:25:23.472Z,6.10
2022-07-25T06:27:50.627Z,5.80
2022-07-25T06:30:21.443Z,6.27
2022-07-25T06:32:50.116Z,6.23
2022-07-25T06:35:18.187Z,5.90
2022-07-25T06:37:47.504Z,5.90
2022-07-25T06:40:15.530Z,6.00
2022-07-25T06:42:45.893Z,6.20
2022-07-25T06:45:19.188Z,6.20
2022-07-25T06:47:46.755Z,5.70
2022-07-25T06:50:21.280Z,6.57
2022-07-25T06:52:49.064Z,5.90
2022-07-25T06:55:16.930Z,6.07
2022-07-25T06:57:44.331Z,6.30
2022-07-25T07:00:13.933Z,6.03
2022-07-25T07:03:01.482Z,6.40
2022-07-25T07:05:36.901Z,6.50
2022-07-25T07:08:05.324Z,6.10
2022-07-25T07:10:32.800Z,5.83
2022-07-25T07:13:23.941Z,6.07
2022-07-25T07:15:52.047Z,5.70
2022-07-25T07:18:20.622Z,6.60
2022-07-25T07:20:48.090Z,7.20
2022-07-25T07:23:16.993Z,6.10
2022-07-25T07:25:47.401Z,6.50
2022-07-25T07:28:16.387Z,5.63
2022-07-25T07:31:15.833Z,6.40
2022-07-25T07:33:33.690Z,5.80
2022-07-25T07:36:02.753Z,6.43
2022-07-25T07:38:30.107Z,6.57
2022-07-25T07:40:57.412Z,6.50
2022-07-25T07:43:29.694Z,5.53
2022-07-25T07:46:01.203Z,6.17
2022-07-25T07:48:30.963Z,5.60
2022-07-25T07:50:59.324Z,5.23
2022-07-25T07:53:46.970Z,5.07
2022-07-25T07:56:16.065Z,5.30
2022-07-25T07:58:43.748Z,5.17
2022-07-25T08:01:12.156Z,4.93
2022-07-25T08:03:39.419Z,4.73
2022-07-25T08:06:06.978Z,5.20
2022-07-25T08:09:14.767Z,5.47
2022-07-25T08:12:00.744Z,4.67
2022-07-25T08:14:27.844Z,5.03
2022-07-25T08:16:57.565Z,5.23
2022-07-25T08:19:24.698Z,5.00
2022-07-25T08:21:51.842Z,4.47
2022-07-25T08:24:18.997Z,4.80
2022-07-25T08:26:46.155Z,4.70
2022-07-25T08:29:23.860Z,4.90
2022-07-25T08:31:54.993Z,5.00
2022-07-25T08:34:22.783Z,4.90
2022-07-25T08:36:50.037Z,4.27
2022-07-25T08:39:17.290Z,4.23
2022-07-25T08:41:44.721Z,4.37
2022-07-25T08:44:17.680Z,3.93
2022-07-25T08:46:46.072Z,3.73
2022-07-25T08:49:13.727Z,3.80
2022-07-25T08:51:41.919Z,4.10
2022-07-25T08:54:10.914Z,3.83
2022-07-25T08:56:38.406Z,4.07
2022-07-25T08:59:05.742Z,3.60
2022-07-25T09:01:34.888Z,3.40
2022-07-25T09:04:04.252Z,3.37
2022-07-25T09:06:31.771Z,3.47
2022-07-25T09:09:01.561Z,3.30
2022-07-25T09:11:37.675Z,3.00
2022-07-25T09:14:15.067Z,3.30
2022-07-25T09:16:45.471Z,3.30
2022-07-25T09:19:16.276Z,3.00
2022-07-25T09:21:46.047Z,2.83
2022-07-25T09:24:17.745Z,2.90
2022-07-25T09:26:55.802Z,2.80
2022-07-25T09:29:32.937Z,2.53
2022-07-25T09:32:02.782Z,2.60
2022-07-25T09:34:42.377Z,2.50
2022-07-25T09:37:15.007Z,2.40
2022-07-25T09:39:51.496Z,2.47
2022-07-25T09:42:20.079Z,2.60
2022-07-25T09:45:05.064Z,2.50
2022-07-25T09:47:37.439Z,2.30
2022-07-25T09:50:06.678Z,2.13
2022-07-25T09:52:35.591Z,2.40
2022-07-25T09:55:06.181Z,2.20
2022-07-25T09:57:33.467Z,2.40
2022-07-25T10:00:01.826Z,2.93
2022-07-25T10:02:48.661Z,2.77
2022-07-25T10:05:26.758Z,2.30
2022-07-25T10:07:56.275Z,2.63
2022-07-25T10:10:37.999Z,2.63
2022-07-25T10:13:12.236Z,2.70
2022-07-25T10:15:53.692Z,2.70
2022-07-25T10:18:26.029Z,2.20
2022-07-25T10:21:25.645Z,2.53
2022-07-25T10:24:10.263Z,2.30
2022-07-25T10:26:40.552Z,2.33
2022-07-25T10:29:13.327Z,2.20
2022-07-25T10:31:50.599Z,2.40
2022-07-25T10:34:35.106Z,2.13
2022-07-25T10:37:18.564Z,2.83
2022-07-25T10:39:46.964Z,2.20
2022-07-25T10:42:17.520Z,2.37
2022-07-25T10:44:49.071Z,2.30
2022-07-25T10:47:18.191Z,2.40
2022-07-25T10:50:14.554Z,2.50
2022-07-25T10:52:43.128Z,2.57
2022-07-25T10:55:10.349Z,2.20
2022-07-25T10:57:54.993Z,2.37
2022-07-25T11:00:28.765Z,2.40
2022-07-25T11:02:57.858Z,2.33
2022-07-25T11:05:25.569Z,2.60
2022-07-25T11:08:20.159Z,2.87
2022-07-25T11:10:50.442Z,2.43
2022-07-25T11:13:17.817Z,2.40
2022-07-25T11:15:45.741Z,2.50
2022-07-25T11:18:13.119Z,2.60
2022-07-25T11:20:40.469Z,2.10
2022-07-25T11:23:10.320Z,2.17
2022-07-25T11:25:37.647Z,2.33
2022-07-25T11:28:05.233Z,2.10
2022-07-25T11:30:32.637Z,3.10
2022-07-25T11:33:03.835Z,3.00
2022-07-25T11:35:33.728Z,2.50
2022-07-25T11:38:02.970Z,2.40
2022-07-25T11:40:32.874Z,2.67
2022-07-25T11:43:00.466Z,2.43
2022-07-25T11:45:37.350Z,2.20
2022-07-25T11:48:15.115Z,2.40
2022-07-25T11:50:46.337Z,2.40
2022-07-25T11:53:16.825Z,2.70
2022-07-25T11:55:44.591Z,2.80
2022-07-25T11:58:14.494Z,2.43
2022-07-25T12:00:47.379Z,2.63
2022-07-25T12:03:20.251Z,2.70
2022-07-25T12:05:49.676Z,2.30
2022-07-25T12:08:22.706Z,2.60
2022-07-25T12:10:51.727Z,2.50
2022-07-25T12:13:30.518Z,2.50
2022-07-25T12:16:00.025Z,2.50
2022-07-25T12:18:28.776Z,2.73
2022-07-25T12:20:56.228Z,2.80
2022-07-25T12:23:23.464Z,6.70
2022-07-25T12:25:51.263Z,2.37
2022-07-25T12:28:18.816Z,2.37
2022-07-25T12:30:50.556Z,2.30
2022-07-25T12:33:21.696Z,2.47
2022-07-25T12:35:48.952Z,2.17
2022-07-25T12:38:16.231Z,2.13
2022-07-25T12:40:43.533Z,2.20
2022-07-25T12:43:10.866Z,2.37
2022-07-25T12:45:38.163Z,3.47
2022-07-25T12:48:05.993Z,3.37
2022-07-25T12:50:33.199Z,5.87
2022-07-25T12:53:00.593Z,2.87
2022-07-25T12:55:28.224Z,2.43
2022-07-25T12:57:55.447Z,2.47
2022-07-25T13:00:24.348Z,2.30
2022-07-25T13:02:53.410Z,2.57
2022-07-25T13:05:24.044Z,2.70
2022-07-25T13:07:51.726Z,2.30
2022-07-25T13:10:20.632Z,2.60
2022-07-25T13:12:47.951Z,2.27
2022-07-25T13:15:15.718Z,2.70
2022-07-25T13:17:43.198Z,3.00
2022-07-25T13:20:11.620Z,2.27
2022-07-25T13:22:38.835Z,2.10
2022-07-25T13:25:06.701Z,2.37
2022-07-25T13:27:33.972Z,2.23
2022-07-25T13:30:01.162Z,2.50
2022-07-25T13:32:28.714Z,2.03
2022-07-25T13:34:56.130Z,2.50
2022-07-25T13:37:23.530Z,2.50
2022-07-25T13:39:51.383Z,2.53
2022-07-25T13:42:18.826Z,2.27
2022-07-25T13:44:46.259Z,2.20
2022-07-25T13:47:13.793Z,2.50
2022-07-25T13:49:41.530Z,2.60
2022-07-25T13:52:08.934Z,2.70
2022-07-25T13:54:36.260Z,2.80
2022-07-25T13:57:04.107Z,2.63
2022-07-25T13:59:31.665Z,2.60
2022-07-25T14:01:58.924Z,2.60
2022-07-25T14:04:26.298Z,2.60
2022-07-25T14:06:53.899Z,2.53
2022-07-25T14:09:22.452Z,2.60
2022-07-25T14:11:49.818Z,2.83
2022-07-25T14:14:17.627Z,3.17
2022-07-25T14:16:45.165Z,2.47
2022-07-25T14:19:12.758Z,2.50
2022-07-25T14:21:40.189Z,2.40
2022-07-25T14:24:08.329Z,3.17
2022-07-25T14:26:35.919Z,2.47
2022-07-25T14:29:04.336Z,2.63
2022-07-25T14:31:33.092Z,2.40
2022-07-25T14:34:00.620Z,2.60
2022-07-25T14:36:30.583Z,3.03
2022-07-25T14:38:57.844Z,2.63
2022-07-25T14:41:26.090Z,2.77
2022-07-25T14:43:53.416Z,2.80
2022-07-25T14:46:21.068Z,2.80
2022-07-25T14:48:48.482Z,3.00
2022-07-25T14:51:15.904Z,2.10
2022-07-25T14:53:44.141Z,2.33
2022-07-25T14:56:12.223Z,2.30
2022-07-25T14:58:39.647Z,2.20
2022-07-25T15:01:09.885Z,1.97
2022-07-25T15:03:38.042Z,5.03
2022-07-25T15:06:09.911Z,2.90
2022-07-25T15:08:39.671Z,2.27
2022-07-25T15:11:07.210Z,2.10
2022-07-25T15:13:35.015Z,2.20
2022-07-25T15:16:05.304Z,2.37
2022-07-25T15:18:42.377Z,2.37
2022-07-25T15:21:19.764Z,1.87
2022-07-25T15:23:47.087Z,2.10
2022-07-25T15:26:14.570Z,2.10
2022-07-25T15:28:41.734Z,2.43
2022-07-25T15:31:09.051Z,2.27
2022-07-25T15:33:36.421Z,2.03
2022-07-25T15:36:04.708Z,2.00
2022-07-25T15:38:32.052Z,2.10
2022-07-25T15:40:59.753Z,2.07
2022-07-25T15:43:27.694Z,2.20
2022-07-25T15:45:55.145Z,1.90
2022-07-25T15:48:23.813Z,2.10
2022-07-25T15:50:55.998Z,2.37
2022-07-25T15:53:24.108Z,2.17
2022-07-25T15:55:51.657Z,2.30
2022-07-25T15:58:19.087Z,2.20
2022-07-25T16:00:46.497Z,2.50
2022-07-25T16:03:14.053Z,2.13
2022-07-25T16:05:43.635Z,1.90
2022-07-25T16:08:11.224Z,2.00
2022-07-25T16:10:39.134Z,2.30
2022-07-25T16:13:06.550Z,1.87
2022-07-25T16:15:33.959Z,1.70
2022-07-25T16:18:03.128Z,2.10
2022-07-25T16:20:32.275Z,1.97
2022-07-25T16:23:00.837Z,2.00
2022-07-25T16:25:29.905Z,1.80
2022-07-25T16:27:59.001Z,1.90
2022-07-25T16:30:27.456Z,1.73
2022-07-25T16:32:55.027Z,1.90
2022-07-25T16:35:22.612Z,2.00
2022-07-25T16:37:49.916Z,1.77
2022-07-25T16:40:17.322Z,1.50
2022-07-25T16:42:44.690Z,1.57
2022-07-25T16:45:12.151Z,1.80
2022-07-25T16:47:41.150Z,1.93
2022-07-25T16:50:08.835Z,1.57
2022-07-25T16:52:36.029Z,1.80
2022-07-25T16:55:03.853Z,1.50
2022-07-25T16:57:31.820Z,2.00
2022-07-25T17:00:00.836Z,1.50
2022-07-25T17:02:29.841Z,1.37
2022-07-25T17:04:57.777Z,1.93
2022-07-25T17:07:26.374Z,1.57
2022-07-25T17:09:54.056Z,1.50
2022-07-25T17:12:21.837Z,1.20
2022-07-25T17:14:49.141Z,1.37
2022-07-25T17:17:16.510Z,1.53
2022-07-25T17:19:44.152Z,1.40
2022-07-25T17:22:12.074Z,1.20
2022-07-25T17:24:40.224Z,1.37
2022-07-25T17:27:10.634Z,1.60
2022-07-25T17:29:38.063Z,1.60
2022-07-25T17:32:08.837Z,1.20
2022-07-25T17:34:36.253Z,1.10
2022-07-25T17:37:03.705Z,1.30
2022-07-25T17:39:32.529Z,1.03
2022-07-25T17:42:00.237Z,1.17
2022-07-25T17:44:27.559Z,1.30
2022-07-25T17:46:58.527Z,1.40
2022-07-25T17:49:25.936Z,1.33
2022-07-25T17:51:54.263Z,1.37
2022-07-25T17:54:21.780Z,1.87
2022-07-25T17:56:49.411Z,1.20
2022-07-25T17:59:16.836Z,1.53
2022-07-25T18:01:44.571Z,1.10
2022-07-25T18:04:12.223Z,1.00
2022-07-25T18:06:39.516Z,1.30
2022-07-25T18:09:09.294Z,1.00
2022-07-25T18:11:36.814Z,0.87
2022-07-25T18:14:04.416Z,1.07
2022-07-25T18:16:51.832Z,1.00
2022-07-25T18:19:19.162Z,1.20
2022-07-25T18:21:47.966Z,1.07
2022-07-25T18:24:15.277Z,0.90
2022-07-25T18:26:43.554Z,0.87
2022-07-25T18:29:11.303Z,1.37
2022-07-25T18:31:38.725Z,1.10
2022-07-25T18:34:06.637Z,1.20
2022-07-25T18:36:34.773Z,1.03
2022-07-25T18:39:02.002Z,0.80
2022-07-25T18:41:30.258Z,1.03
2022-07-25T18:43:58.621Z,1.10
2022-07-25T18:46:30.443Z,1.00
2022-07-25T18:48:59.271Z,1.00
2022-07-25T18:51:28.127Z,0.93
2022-07-25T18:53:55.701Z,1.10
2022-07-25T18:56:23.530Z,0.87
2022-07-25T18:58:51.373Z,1.80
2022-07-25T19:01:21.581Z,2.70
2022-07-25T19:03:50.054Z,1.20
2022-07-25T19:06:17.654Z,1.07
2022-07-25T19:08:46.460Z,1.07
2022-07-25T19:11:14.621Z,1.20
2022-07-25T19:13:50.007Z,1.20
2022-07-25T19:16:18.584Z,1.10
2022-07-25T19:19:23.465Z,1.13
2022-07-25T19:21:51.175Z,1.17
2022-07-25T19:24:18.518Z,1.13
2022-07-25T19:26:47.870Z,1.40
2022-07-25T19:29:19.294Z,1.30
2022-07-25T19:31:47.230Z,1.00
2022-07-25T19:34:14.759Z,0.90
2022-07-25T19:36:46.144Z,1.10
2022-07-25T19:39:13.972Z,1.10
2022-07-25T19:41:46.729Z,0.87
2022-07-25T19:44:15.253Z,1.10
2022-07-25T19:46:42.763Z,1.13
2022-07-25T19:49:10.364Z,1.37
2022-07-25T19:51:37.675Z,0.80
2022-07-25T19:54:08.576Z,1.07
2022-07-25T19:56:36.184Z,1.10
2022-07-25T19:59:04.412Z,0.93
2022-07-25T20:01:35.768Z,1.20
2022-07-25T20:05:08.324Z,0.97
2022-07-25T20:07:35.823Z,0.90
2022-07-25T20:10:04.704Z,1.20
2022-07-25T20:12:34.672Z,1.40
2022-07-25T20:15:03.019Z,1.13
2022-07-25T20:17:37.342Z,1.23
2022-07-25T20:20:07.926Z,0.90
2022-07-25T20:22:38.599Z,1.30
2022-07-25T20:25:09.939Z,1.13
2022-07-25T20:27:37.530Z,1.20
2022-07-25T20:30:08.550Z,1.03
2022-07-25T20:32:36.010Z,1.17
2022-07-25T20:35:04.542Z,1.10
2022-07-25T20:37:35.816Z,1.10
2022-07-25T20:40:04.916Z,1.10
2022-07-25T20:42:33.257Z,1.00
2022-07-25T20:45:02.420Z,1.20
2022-07-25T20:47:30.140Z,1.20
2022-07-25T20:50:03.678Z,1.00
2022-07-25T20:52:39.536Z,1.33
2022-07-25T20:55:10.814Z,1.30
2022-07-25T20:57:50.465Z,1.30
2022-07-25T21:00:18.509Z,1.00
2022-07-25T21:02:45.914Z,0.90
2022-07-25T21:05:16.507Z,1.20
2022-07-25T21:07:51.573Z,1.17
2022-07-25T21:10:22.830Z,1.50
2022-07-25T21:13:06.531Z,1.20
2022-07-25T21:15:56.688Z,1.20
2022-07-25T21:18:24.122Z,0.80
2022-07-25T21:21:12.454Z,1.10
2022-07-25T21:23:40.991Z,1.00
2022-07-25T21:28:49.272Z,1.23
2022-07-25T21:31:18.462Z,1.20
2022-07-25T21:33:45.840Z,1.20
2022-07-25T21:36:13.268Z,1.17
2022-07-25T21:38:40.556Z,1.10
2022-07-25T21:41:08.559Z,1.30
2022-07-25T21:43:40.608Z,1.20
2022-07-25T21:49:40.698Z,1.27
2022-07-25T21:52:14.652Z,1.20
2022-07-25T21:54:43.799Z,1.40
2022-07-25T21:57:26.684Z,1.40
2022-07-25T21:59:54.178Z,1.27
2022-07-25T22:02:30.116Z,1.17
2022-07-25T22:04:57.503Z,1.30
2022-07-25T22:07:25.405Z,1.60
2022-07-25T22:09:52.884Z,1.10
2022-07-25T22:12:20.452Z,1.20
2022-07-25T22:14:49.249Z,1.20
2022-07-25T22:17:16.734Z,1.30
2022-07-25T22:20:21.972Z,1.20
2022-07-25T22:22:49.931Z,1.30
2022-07-25T22:25:18.388Z,1.13
2022-07-25T22:27:45.697Z,1.50
2022-07-25T22:30:19.438Z,1.40
2022-07-25T22:32:48.862Z,1.40
2022-07-25T22:35:16.772Z,1.20
2022-07-25T22:37:46.194Z,1.30
2022-07-25T22:40:15.120Z,1.30
2022-07-25T22:42:42.497Z,1.40
2022-07-25T22:45:11.256Z,1.47
2022-07-25T22:47:39.611Z,1.53
2022-07-25T22:50:08.025Z,1.37
2022-07-25T22:52:35.629Z,1.30
2022-07-25T22:55:03.193Z,1.27
2022-07-25T22:57:36.667Z,1.30
2022-07-25T23:00:10.008Z,1.27
2022-07-25T23:02:38.450Z,1.40
2022-07-25T23:05:09.271Z,1.37
2022-07-25T23:07:36.537Z,1.50
2022-07-25T23:10:06.139Z,1.30
2022-07-25T23:12:33.634Z,1.50
2022-07-25T23:15:01.185Z,1.30
2022-07-25T23:17:28.662Z,1.57
2022-07-25T23:19:56.970Z,1.70
2022-07-25T23:22:26.771Z,1.50
2022-07-25T23:24:55.677Z,1.40
2022-07-25T23:27:23.947Z,1.60
2022-07-25T23:29:53.117Z,1.80
2022-07-25T23:32:21.212Z,1.80
2022-07-25T23:34:48.637Z,2.07
2022-07-25T23:37:17.572Z,2.00
2022-07-25T23:39:44.822Z,2.07
2022-07-25T23:42:13.005Z,2.10
2022-07-25T23:44:44.433Z,2.27
2022-07-25T23:47:11.911Z,2.23
2022-07-25T23:49:43.701Z,2.23
2022-07-25T23:52:14.854Z,2.43
2022-07-25T23:54:42.381Z,2.20
2022-07-25T23:57:13.694Z,2.60
2022-07-25T23:59:41.071Z,2.63
